Current Weather Conditions from Arkansas, Oklahoma, Missouri & Kansas

As well as selected U.S. cities associated with XNA Flights


KVBT - Bentonville Arkansas, Airport
Updated: Sun, Feb-Sun-2018 12:56pm
Clear
Clear
 Wind from ESE
Wind: ESE 8 mph , 13 km/h
Temperature: 52°F , 11°C
Dew Point: 34°F , 1°C
Humidity: 50%
Barometer: 30.08 inHg , 1018.6 hPa
Clouds: Clear
Visibility: 10 miles , 16 km
2018/02/25 18:56 KVBT 251856Z AUTO 11007KT 10SM CLR 11/01 A3008 RMK AO2 SLP195 T01060006
KROG - Rogers Arkansas, Airport
Updated: Sun, Feb-Sun-2018 12:58pm
Clear
Clear
 Wind from S
Wind: S 6 mph , 9 km/h
Temperature: 52°F , 11°C
Dew Point: 34°F , 1°C
Humidity: 50%
Barometer: 30.08 inHg , 1018.6 hPa
Clouds: Clear
Visibility: 10 miles , 16 km
2018/02/25 18:58 KROG 251858Z 18005KT 10SM CLR 11/01 A3008 RMK AO2 SLP189 T01110011
KXNA - Northwest Arkansas Regional Airport
Updated: Sun, Feb-Sun-2018 12:53pm
Clear
Clear
 Wind from varies
Wind: varies 3 mph , 6 km/h
Temperature: 54°F , 12°C
Dew Point: 30°F , -1°C
Humidity: 41%
Barometer: 30.07 inHg , 1018.3 hPa
Clouds: Clear
Visibility: 10 miles , 16 km
2018/02/25 18:53 KXNA 251853Z VRB03KT 10SM CLR 12/M01 A3007 RMK AO2 SLP184 T01171006
 
KSLG - Siloam Spring Arkansas, Airport
Updated: Sun, Feb-Sun-2018 12:56pm
Clear
Clear
 Wind from SSE
Wind: SSE 10 mph , 17 km/h, Gust: 17 mph , 28 km/h
Temperature: 54°F , 12°C
Dew Point: 32°F , 0°C
Humidity: 44%
Barometer: 30.06 inHg , 1017.9 hPa
Clouds: Clear
Visibility: 10 miles , 16 km
2018/02/25 18:56 KSLG 251856Z AUTO 15009G15KT 10SM CLR 12/00 A3006 RMK AO2 SLP184 T01220000
KASG - Springdale, Arkansas, Airport
Updated: Sun, Feb-Sun-2018 12:48pm
Clear
Clear
 Wind from ESE
Wind: ESE 8 mph , 13 km/h
Temperature: 54°F , 12°C
Dew Point: 34°F , 1°C
Humidity: 47%
Barometer: 30.08 inHg , 1018.6 hPa
Clouds: Clear
Visibility: 10 miles , 16 km
2018/02/25 18:48 KASG 251848Z 12007KT 10SM SKC 12/01 A3008
KFYV - Fayetteville Arkansas, Airport
Updated: Sun, Feb-Sun-2018 12:53pm
Clear
Clear
 Wind from S
Wind: S 7 mph , 11 km/h
Temperature: 55°F , 13°C
Dew Point: 30°F , -1°C
Humidity: 38%
Barometer: 30.06 inHg , 1017.9 hPa
Clouds: Clear
Visibility: 10 miles , 16 km
2018/02/25 18:53 KFYV 251853Z 17006KT 10SM CLR 13/M01 A3006 RMK AO2 SLP181 T01331011
 
KHRO - Harrison, Arkansas
Updated: Sun, Feb-Sun-2018 12:53pm
Clear
Clear
 Wind from SE
Wind: SE 7 mph , 11 km/h
Temperature: 52°F , 11°C
Dew Point: 34°F , 1°C
Humidity: 50%
Barometer: 30.09 inHg , 1019 hPa
Clouds: Clear
Visibility: 10 miles , 16 km
2018/02/25 18:53 KHRO 251853Z AUTO 14006KT 10SM CLR 11/01 A3009 RMK AO2 SLP191 T01060006 PNO $
KFLP - Flippin, Arkansas
Updated: Sun, Feb-Sun-2018 12:56pm
Clear
Clear
 Wind from calm
Wind: Calm
Temperature: 52°F , 11°C
Dew Point: 34°F , 1°C
Humidity: 50%
Barometer: 30.12 inHg , 1020 hPa
Clouds: Clear
Visibility: 10 miles , 16 km
2018/02/25 18:56 KFLP 251856Z AUTO 00000KT 10SM CLR 11/01 A3012 RMK AO2 SLP199 T01110006
KBPK - Mountain Home, Arkansas
Updated: Sun, Feb-Sun-2018 12:53pm
Clear
Clear
 Wind from varies
Wind: varies 7 mph , 11 km/h
Temperature: 52°F , 11°C
Dew Point: 34°F , 1°C
Humidity: 50%
Barometer: 30.10 inHg , 1019.3 hPa
Clouds: Clear
Visibility: 10 miles , 16 km
2018/02/25 18:53 KBPK 251853Z AUTO VRB06KT 10SM CLR 11/01 A3010 RMK AO2 SLP193 T01060006
 
KCCA - Clinton, Arkansas
Updated: Sun, Feb-Sun-2018 1:35pm
Clear
Clear
 Wind from N
Wind: N 0 mph , 0 km/h, Gust: 13 mph , 20 km/h
Temperature: 52°F , 11°C
Dew Point: 34°F , 1°C
Humidity: 50%
Barometer: 30.11 inHg , 1019.6 hPa
Clouds: Clear
Visibility: 8 miles , 13 km
2018/02/25 19:35 KCCA 251935Z AUTO 00000G11KT 8SM CLR 11/01 A3011 RMK AO2
KRUE - Russellville, Arkansas
Updated: Sun, Feb-Sun-2018 12:53pm
Clear
Clear
 Wind from ESE
Wind: ESE 7 mph , 11 km/h
Temperature: 52°F , 11°C
Dew Point: 34°F , 1°C
Humidity: 50%
Barometer: 30.11 inHg , 1019.6 hPa
Clouds: Clear
Visibility: 10 miles , 16 km
2018/02/25 18:53 KRUE 251853Z AUTO 12006KT 10SM CLR 11/01 A3011 RMK AO2 SLP193 T01110011 $
KBVX - Batesville, Arkansa
Updated: Sun, Feb-Sun-2018 12:56pm
Clear
Clear
 Wind from calm
Wind: Calm
Temperature: 48°F , 9°C
Dew Point: 34°F , 1°C
Humidity: 58%
Barometer: 30.13 inHg , 1020.3 hPa
Clouds: Clear
Visibility: 10 miles , 16 km
2018/02/25 18:56 KBVX 251856Z AUTO 00000KT 10SM CLR 09/01 A3013 RMK AO2 SLP203 T00940011
 
KBYH - Blytheville, Arkansas
Updated: Fri, Feb-Fri-2018 3:50pm
NOT Current
Overcast
Overcast
 Wind from N
Wind: N 8 mph , 13 km/h
Temperature: 55°F , 13°C
Dew Point: 52°F , 11°C
Humidity: 88%
Barometer: 30.24 inHg , 1024 hPa
Clouds: Overcast
Visibility: 10 miles , 16 km
Cloud details: Overcast 1400 ft
2018/02/23 21:50 KBYH 232150Z 36007KT 10SM OVC014 13/11 A3024 RMK LAST
KM19 - Newport, Arkansas
Updated: Sun, Feb-Sun-2018 12:56pm

 Wind from NNE
Wind: NNE 6 mph , 9 km/h
Temperature: 48°F , 9°C
Wind Chill: 45°F , 7°C
Dew Point: 34°F , 1°C
Humidity: 58%
Barometer: 30.13 inHg , 1020.3 hPa
Visibility: 10 miles , 16 km
2018/02/25 18:56 KM19 251856Z AUTO 03005KT 10SM 09/01 A3013 RMK AO2 SLP211 T00940011 $
KSRC - Searcy, Arkansas
Updated: Sun, Feb-Sun-2018 12:56pm
Clear
Clear
 Wind from ENE
Wind: ENE 7 mph , 11 km/h
Temperature: 52°F , 11°C
Dew Point: 34°F , 1°C
Humidity: 50%
Barometer: 30.13 inHg , 1020.3 hPa
Clouds: Clear
Visibility: 10 miles , 16 km
2018/02/25 18:56 KSRC 251856Z AUTO 07006KT 10SM CLR 11/01 A3013 RMK AO2 SLP212 T01110011
 
KARG - Walnut Ridge, Arkansas
Updated: Sun, Feb-Sun-2018 12:56pm
Clear
Clear
 Wind from varies
Wind: varies 3 mph , 6 km/h
Temperature: 48°F , 9°C
Dew Point: 34°F , 1°C
Humidity: 58%
Barometer: 30.13 inHg , 1020.3 hPa
Clouds: Clear
Visibility: 10 miles , 16 km
2018/02/25 18:56 KARG 251856Z AUTO VRB03KT 10SM CLR 09/01 A3013 RMK AO2 SLP206 T00890011
KJBR - Jonesboro, Arkansas
Updated: Sun, Feb-Sun-2018 12:53pm
Clear
Clear
 Wind from E
Wind: E 6 mph , 9 km/h
Temperature: 50°F , 10°C
Wind Chill: 48°F , 9°C
Dew Point: 36°F , 2°C
Humidity: 58%
Barometer: 30.12 inHg , 1020 hPa
Clouds: Clear
Visibility: 10 miles , 16 km
2018/02/25 18:53 KJBR 251853Z AUTO 10005KT 10SM CLR 10/02 A3012 RMK AO2 SLP200 T01000017
K4M9 - Corning, Arkansas
Updated: Mon, Dec-Mon-2017 5:55am
NOT Current
Overcast
Overcast
 Wind from SW
Wind: SW 6 mph , 9 km/h
Temperature: 45°F , 7°C
Wind Chill: 42°F , 6°C
Dew Point: 45°F , 7°C
Humidity: 100%
Barometer: 30.13 inHg , 1020.3 hPa
Clouds: Overcast
Visibility: 10 miles , 16 km
Cloud details: Few Clouds 600 ft
Overcast 3500 ft
2017/12/18 11:55 K4M9 181155Z AUTO 22005KT 10SM FEW006 OVC035 07/07 A3013 RMK AO2 PWINO
 
KLRF - Little Rock Afb, Arkansas
Updated: Sun, Feb-Sun-2018 12:56pm
Overcast
Overcast
 Wind from calm
Wind: Calm
Temperature: 54°F , 12°C
Dew Point: 36°F , 2°C
Humidity: 51%
Barometer: 30.11 inHg , 1019.6 hPa
Clouds: Overcast
Visibility: 10 miles , 16 km
Cloud details: Overcast 15000 ft
2018/02/25 18:56 KLRF 251856Z AUTO 00000KT 10SM OVC150 12/02 A3011 RMK AO2 SLP199 T01190021
KLIT - Little Rock, Arkansas
Updated: Sun, Feb-Sun-2018 12:53pm
Overcast
Overcast
 Wind from E
Wind: E 3 mph , 6 km/h
Temperature: 52°F , 11°C
Dew Point: 36°F , 2°C
Humidity: 54%
Barometer: 30.13 inHg , 1020.3 hPa
Clouds: Overcast
Visibility: 10 miles , 16 km
Cloud details: Partly cloudy 15000 ft
Overcast 25000 ft
2018/02/25 18:53 KLIT 251853Z 10003KT 10SM SCT150 OVC250 11/02 A3013 RMK AO2 SLP206 VIRGA E-S T01060022 $
KSGT - Stuttgart, Arkansas
Updated: Sun, Feb-Sun-2018 12:56pm
Clear
Clear
 Wind from ESE
Wind: ESE 3 mph , 6 km/h
Temperature: 54°F , 12°C
Dew Point: 36°F , 2°C
Humidity: 51%
Barometer: 30.11 inHg , 1019.6 hPa
Clouds: Clear
Visibility: 10 miles , 16 km
2018/02/25 18:56 KSGT 251856Z AUTO 11003KT 10SM CLR 12/02 A3011 RMK AO2 SLP198 T01220022
 
KAWM - West Memphis, Arkansas
Updated: Sun, Feb-Sun-2018 12:53pm
Clear
Clear
 Wind from N
Wind: N 6 mph , 9 km/h
Temperature: 52°F , 11°C
Dew Point: 43°F , 6°C
Humidity: 72%
Barometer: 30.11 inHg , 1019.6 hPa
Clouds: Clear
Visibility: 10 miles , 16 km
2018/02/25 18:53 KAWM 251853Z AUTO 35005KT 10SM CLR 11/06 A3011 RMK AO2 SLP194 T01110056 $
KFSM - Fort Smith, Arkansas
Updated: Sun, Feb-Sun-2018 12:53pm
Clear
Clear
 Wind from varies
Wind: varies 6 mph , 9 km/h
Temperature: 55°F , 13°C
Dew Point: 37°F , 3°C
Humidity: 51%
Barometer: 30.09 inHg , 1019 hPa
Clouds: Clear
Visibility: 10 miles , 16 km
2018/02/25 18:53 KFSM 251853Z VRB05KT 10SM CLR 13/03 A3009 RMK AO2 SLP190 T01330028
KMWT - Mount Ida, Arkansas
Updated: Sun, Feb-Sun-2018 12:53pm
Clear
Clear
 Wind from calm
Wind: Calm
Temperature: 52°F , 11°C
Dew Point: 39°F , 4°C
Humidity: 62%
Barometer: 30.07 inHg , 1018.3 hPa
Clouds: Clear
Visibility: 10 miles , 16 km
2018/02/25 18:53 KMWT 251853Z AUTO 00000KT 10SM CLR 11/04 A3007 RMK AO2 SLP186 T01110044
 
KMEZ - Mena, Arkansas
Updated: Sun, Feb-Sun-2018 1:15pm
Clear
Clear
 Wind from calm
Wind: Calm
Temperature: 57°F , 14°C
Dew Point: 28°F , -2°C
Humidity: 33%
Barometer: 30.08 inHg , 1018.6 hPa
Clouds: Clear
Visibility: 10 miles , 16 km
2018/02/25 19:15 KMEZ 251915Z AUTO 00000KT 10SM CLR 14/M02 A3008 RMK AO2
KHOT - Hot Springs, Arkansas
Updated: Sun, Feb-Sun-2018 12:53pm
Clear
Clear
 Wind from E
Wind: E 7 mph , 11 km/h
Temperature: 54°F , 12°C
Dew Point: 36°F , 2°C
Humidity: 51%
Barometer: 30.10 inHg , 1019.3 hPa
Clouds: Clear
Visibility: 10 miles , 16 km
2018/02/25 18:53 KHOT 251853Z AUTO 09006KT 10SM CLR 12/02 A3010 RMK AO2 SLP191 T01220017
KADF - Arkadelphia, Arkansas
Updated: Sun, Feb-Sun-2018 12:56pm
Few Clouds
Few Clouds
 Wind from E
Wind: E 6 mph , 9 km/h
Temperature: 55°F , 13°C
Dew Point: 43°F , 6°C
Humidity: 63%
Barometer: 30.11 inHg , 1019.6 hPa
Clouds: Few Clouds
Visibility: 10 miles , 16 km
Cloud details: Few Clouds 12000 ft
2018/02/25 18:56 KADF 251856Z AUTO 10005KT 10SM FEW120 13/06 A3011 RMK AO2 SLP202 T01280056
 
KSGT - Stuttgart, Arkansas
Updated: Sun, Feb-Sun-2018 12:56pm
Clear
Clear
 Wind from ESE
Wind: ESE 3 mph , 6 km/h
Temperature: 54°F , 12°C
Dew Point: 36°F , 2°C
Humidity: 51%
Barometer: 30.11 inHg , 1019.6 hPa
Clouds: Clear
Visibility: 10 miles , 16 km
2018/02/25 18:56 KSGT 251856Z AUTO 11003KT 10SM CLR 12/02 A3011 RMK AO2 SLP198 T01220022
KPBF - Pine Bluff, Arkansas
Updated: Sun, Feb-Sun-2018 12:53pm
Clear
Clear
 Wind from E
Wind: E 3 mph , 6 km/h
Temperature: 54°F , 12°C
Dew Point: 39°F , 4°C
Humidity: 58%
Barometer: 30.12 inHg , 1020 hPa
Clouds: Clear
Visibility: 10 miles , 16 km
2018/02/25 18:53 KPBF 251853Z AUTO 09003KT 10SM CLR 12/04 A3012 RMK AO2 SLP198 T01220039
KSRC - Searcy, Arkansas
Updated: Sun, Feb-Sun-2018 12:56pm
Clear
Clear
 Wind from ENE
Wind: ENE 7 mph , 11 km/h
Temperature: 52°F , 11°C
Dew Point: 34°F , 1°C
Humidity: 50%
Barometer: 30.13 inHg , 1020.3 hPa
Clouds: Clear
Visibility: 10 miles , 16 km
2018/02/25 18:56 KSRC 251856Z AUTO 07006KT 10SM CLR 11/01 A3013 RMK AO2 SLP212 T01110011
 
KRUE - Russellville, Arkansas
Updated: Sun, Feb-Sun-2018 12:53pm
Clear
Clear
 Wind from ESE
Wind: ESE 7 mph , 11 km/h
Temperature: 52°F , 11°C
Dew Point: 34°F , 1°C
Humidity: 50%
Barometer: 30.11 inHg , 1019.6 hPa
Clouds: Clear
Visibility: 10 miles , 16 km
2018/02/25 18:53 KRUE 251853Z AUTO 12006KT 10SM CLR 11/01 A3011 RMK AO2 SLP193 T01110011 $
KCCA - Clinton, Arkansas
Updated: Sun, Feb-Sun-2018 1:35pm
Clear
Clear
 Wind from N
Wind: N 0 mph , 0 km/h, Gust: 13 mph , 20 km/h
Temperature: 52°F , 11°C
Dew Point: 34°F , 1°C
Humidity: 50%
Barometer: 30.11 inHg , 1019.6 hPa
Clouds: Clear
Visibility: 8 miles , 13 km
2018/02/25 19:35 KCCA 251935Z AUTO 00000G11KT 8SM CLR 11/01 A3011 RMK AO2
KLLQ - Monticello, Arkansas
Updated: Sun, Feb-Sun-2018 12:53pm
Clear
Clear
 Wind from calm
Wind: Calm
Temperature: 55°F , 13°C
Dew Point: 41°F , 5°C
Humidity: 59%
Barometer: 30.12 inHg , 1020 hPa
Clouds: Clear
Visibility: 10 miles , 16 km
2018/02/25 18:53 KLLQ 251853Z AUTO 00000KT 10SM CLR 13/05 A3012 RMK AO2 SLP196 T01330050
 
KCDH - Camden, Arkansas
Updated: Sun, Feb-Sun-2018 1:15pm
Mostly cloudy
Mostly cloudy
 Wind from SSE
Wind: SSE 3 mph , 6 km/h
Temperature: 57°F , 14°C
Dew Point: 46°F , 8°C
Humidity: 67%
Barometer: 30.09 inHg , 1019 hPa
Clouds: Mostly cloudy
Visibility: 9 miles , 14 km
Cloud details: Mostly cloudy 2200 ft
Mostly cloudy 8000 ft
2018/02/25 19:15 KCDH 251915Z AUTO 15003KT 9SM BKN022 BKN080 14/08 A3009 RMK AO2
KM19 - Newport, Arkansas
Updated: Sun, Feb-Sun-2018 12:56pm

 Wind from NNE
Wind: NNE 6 mph , 9 km/h
Temperature: 48°F , 9°C
Wind Chill: 45°F , 7°C
Dew Point: 34°F , 1°C
Humidity: 58%
Barometer: 30.13 inHg , 1020.3 hPa
Visibility: 10 miles , 16 km
2018/02/25 18:56 KM19 251856Z AUTO 03005KT 10SM 09/01 A3013 RMK AO2 SLP211 T00940011 $
KDEQ - De Queen, Arkansas
Updated: Sun, Feb-Sun-2018 12:53pm
Clear
Clear
 Wind from E
Wind: E 9 mph , 15 km/h
Temperature: 55°F , 13°C
Dew Point: 45°F , 7°C
Humidity: 67%
Barometer: 30.07 inHg , 1018.3 hPa
Clouds: Clear
Visibility: 10 miles , 16 km
2018/02/25 18:53 KDEQ 251853Z AUTO 10008KT 10SM CLR 13/07 A3007 RMK AO2 SLP182 T01280067 $
 
KTXK - Texarkana, Arkansas
Updated: Sun, Feb-Sun-2018 12:53pm
Few Clouds
Few Clouds
 Wind from SSE
Wind: SSE 7 mph , 11 km/h
Temperature: 57°F , 14°C
Dew Point: 48°F , 9°C
Humidity: 72%
Barometer: 30.07 inHg , 1018.3 hPa
Clouds: Few Clouds
Visibility: 10 miles , 16 km
Cloud details: Few Clouds 8000 ft
2018/02/25 18:53 KTXK 251853Z 15006KT 10SM FEW080 14/09 A3007 RMK AO2 SLP181 T01390094
KELD - El Dorado, Arkansas
Updated: Sun, Feb-Sun-2018 1:29pm
Mostly cloudy
Mostly cloudy
 Wind from E
Wind: E 7 mph , 11 km/h
Temperature: 55°F , 13°C
Dew Point: 54°F , 12°C
Humidity: 94%
Barometer: 30.07 inHg , 1018.3 hPa
Clouds: Mostly cloudy
Visibility: 10 miles , 16 km
Cloud details: Partly cloudy 1900 ft
Mostly cloudy 2300 ft
Mostly cloudy 11000 ft
2018/02/25 19:29 KELD 251929Z AUTO 10006KT 10SM SCT019 BKN023 BKN110 13/12 A3007 RMK AO2 T01330117
KCSM - Clinton, Oklahoma
Updated: Sun, Feb-Sun-2018 12:53pm
Clear
Clear
 Wind from SSE
Wind: SSE 14 mph , 22 km/h
Temperature: 55°F , 13°C
Dew Point: 34°F , 1°C
Humidity: 44%
Barometer: 29.98 inHg , 1015.2 hPa
Clouds: Clear
Visibility: 10 miles , 16 km
2018/02/25 18:53 KCSM 251853Z AUTO 16012KT 10SM CLR 13/01 A2998 RMK AO2 SLP152 T01280006
 
KHBR - Hobart, Oklahoma
Updated: Sun, Feb-Sun-2018 12:53pm
Clear
Clear
 Wind from SSW
Wind: SSW 16 mph , 26 km/h, Gust: 21 mph , 33 km/h
Temperature: 57°F , 14°C
Dew Point: 36°F , 2°C
Humidity: 44%
Barometer: 29.99 inHg , 1015.6 hPa
Clouds: Clear
Visibility: 10 miles , 16 km
2018/02/25 18:53 KHBR 251853Z AUTO 21014G18KT 10SM CLR 14/02 A2999 RMK AO2 SLP156 T01440022
KLTS - Altus Afb, Oklahoma
Updated: Sun, Feb-Sun-2018 12:56pm
Clear
Clear
 Wind from S
Wind: S 12 mph , 19 km/h
Clouds: Clear
Visibility: 10 miles , 16 km
2018/02/25 18:56 KLTS 251856Z AUTO 18010KT 10SM CLR M A3000 RMK AO2 SLPNO ALSTG ESTMD $
KFSI - Fort Sill, Oklahoma
Updated: Sun, Feb-Sun-2018 12:56pm
Clear
Clear
 Wind from S
Wind: S 9 mph , 15 km/h
Temperature: 59°F , 15°C
Dew Point: 45°F , 7°C
Humidity: 59%
Barometer: 29.99 inHg , 1015.6 hPa
Clouds: Clear
Visibility: 10 miles , 16 km
2018/02/25 18:56 KFSI 251856Z AUTO 18008KT 10SM CLR 15/07 A2999 RMK AO2 SLP156 T01510069 $
 
KGAG - Gage, Oklahoma
Updated: Sun, Feb-Sun-2018 12:53pm
Clear
Clear
 Wind from W
Wind: W 8 mph , 13 km/h
Temperature: 54°F , 12°C
Dew Point: 19°F , -7°C
Humidity: 26%
Barometer: 29.97 inHg , 1014.9 hPa
Clouds: Clear
Visibility: 10 miles , 16 km
2018/02/25 18:53 KGAG 251853Z AUTO 28007KT 10SM CLR 12/M07 A2997 RMK AO2 SLP151 T01221067
KWWR - Woodward, Oklahoma
Updated: Sun, Feb-Sun-2018 1:15pm
Clear
Clear
 Wind from WNW
Wind: WNW 7 mph , 11 km/h
Temperature: 50°F , 10°C
Wind Chill: 47°F , 8°C
Dew Point: 18°F , -8°C
Humidity: 28%
Barometer: 29.99 inHg , 1015.6 hPa
Clouds: Clear
Visibility: 10 miles , 16 km
2018/02/25 19:15 KWWR 251915Z AUTO 29006KT 10SM CLR 10/M08 A2999 RMK AO2
KLAW - Lawton, Oklahoma
Updated: Sun, Feb-Sun-2018 12:53pm
Clear
Clear
 Wind from SSE
Wind: SSE 12 mph , 19 km/h
Temperature: 59°F , 15°C
Dew Point: 43°F , 6°C
Humidity: 55%
Barometer: 30.01 inHg , 1016.3 hPa
Clouds: Clear
Visibility: 10 miles , 16 km
2018/02/25 18:53 KLAW 251853Z 15010KT 10SM CLR 15/06 A3001 RMK AO2 SLP163 T01500056 $
 
KOKC - Oklahoma City, Oklahoma
Updated: Sun, Feb-Sun-2018 12:52pm
Clear
Clear
 Wind from S
Wind: S 13 mph , 20 km/h
Temperature: 57°F , 14°C
Dew Point: 37°F , 3°C
Humidity: 48%
Barometer: 30.00 inHg , 1015.9 hPa
Clouds: Clear
Visibility: 10 miles , 16 km
2018/02/25 18:52 KOKC 251852Z 18011KT 10SM CLR 14/03 A3000 RMK AO2 SLP161 T01440033
KEND - Enid/Vance Afb, Oklahoma
Updated: Sun, Feb-Sun-2018 12:56pm
Clear
Clear
 Wind from S
Wind: S 14 mph , 22 km/h
Temperature: 55°F , 13°C
Dew Point: 37°F , 3°C
Humidity: 51%
Barometer: 29.99 inHg , 1015.6 hPa
Clouds: Clear
Visibility: 10 miles , 16 km
2018/02/25 18:56 KEND 251856Z 19012KT 10SM CLR 13/03 A2999 RMK AO2A SLP162 T01280029 $
KFDR - Frederick/Altus, Oklahoma
Updated: Sun, Feb-Sun-2018 12:53pm
Clear
Clear
 Wind from S
Wind: S 12 mph , 19 km/h
Temperature: 61°F , 16°C
Dew Point: 34°F , 1°C
Humidity: 36%
Barometer: 29.97 inHg , 1014.9 hPa
Clouds: Clear
Visibility: 10 miles , 16 km
2018/02/25 18:53 KFDR 251853Z AUTO 17010KT 10SM CLR 16/01 A2997 RMK AO2 SLP145 T01560011
 
KOUN - Norman, Oklahoma
Updated: Sun, Feb-Sun-2018 12:50pm
Clear
Clear
 Wind from SSE
Wind: SSE 15 mph , 24 km/h
Temperature: 57°F , 14°C
Dew Point: 39°F , 4°C
Humidity: 51%
Barometer: 30.00 inHg , 1015.9 hPa
Clouds: Clear
Visibility: 10 miles , 16 km
2018/02/25 18:50 KOUN 251850Z 16013KT 10SM SKC 14/04 A3000
KTIK - Tinker Afb, Oklahoma
Updated: Sun, Feb-Sun-2018 12:56pm
Clear
Clear
 Wind from S
Wind: S 13 mph , 20 km/h
Temperature: 55°F , 13°C
Dew Point: 39°F , 4°C
Humidity: 55%
Barometer: 30.00 inHg , 1015.9 hPa
Clouds: Clear
Visibility: 10 miles , 16 km
2018/02/25 18:56 KTIK 251856Z AUTO 19011KT 10SM CLR 13/04 A3000 RMK AO2 SLP170 T01330039 $
KGOK - Guthrie, Oklahoma
Updated: Sun, Feb-Sun-2018 12:53pm
Clear
Clear
 Wind from SSW
Wind: SSW 15 mph , 24 km/h
Temperature: 55°F , 13°C
Dew Point: 36°F , 2°C
Humidity: 47%
Barometer: 30.01 inHg , 1016.3 hPa
Clouds: Clear
Visibility: 10 miles , 16 km
2018/02/25 18:53 KGOK 251853Z AUTO 20013KT 10SM CLR 13/02 A3001 RMK AO2 SLP166 T01330022 $
 
KSNL - Shawnee, Oklahoma
Updated: Sun, Feb-Sun-2018 1:15pm
Clear
Clear
 Wind from SW
Wind: SW 13 mph , 20 km/h, Gust: 18 mph , 30 km/h
Temperature: 59°F , 15°C
Dew Point: 37°F , 3°C
Humidity: 45%
Barometer: 30.00 inHg , 1015.9 hPa
Clouds: Clear
Visibility: 10 miles , 16 km
2018/02/25 19:15 KSNL 251915Z AUTO 22011G16KT 10SM CLR 15/03 A3000 RMK AO2 T01520028
KCQB - Chandler, Oklahoma
Updated: Sun, Feb-Sun-2018 1:15pm
Clear
Clear
 Wind from SSW
Wind: SSW 10 mph , 17 km/h, Gust: 16 mph , 26 km/h
Temperature: 59°F , 15°C
Dew Point: 36°F , 2°C
Humidity: 42%
Barometer: 30.02 inHg , 1016.6 hPa
Clouds: Clear
Visibility: 10 miles , 16 km
2018/02/25 19:15 KCQB 251915Z AUTO 20009G14KT 10SM CLR 15/02 A3002 RMK AO2 T01460021
KPVJ - Pauls Valley, Oklahoma
Updated: Sun, Feb-Sun-2018 1:15pm
Clear
Clear
 Wind from S
Wind: S 14 mph , 22 km/h, Gust: 17 mph , 28 km/h
Temperature: 59°F , 15°C
Dew Point: 37°F , 3°C
Humidity: 45%
Barometer: 30.01 inHg , 1016.3 hPa
Clouds: Clear
Visibility: 10 miles , 16 km
2018/02/25 19:15 KPVJ 251915Z AUTO 18012G15KT 10SM CLR 15/03 A3001 RMK AO2 T01540025
 
KEND - Enid/Vance Afb, Oklahoma
Updated: Sun, Feb-Sun-2018 12:56pm
Clear
Clear
 Wind from S
Wind: S 14 mph , 22 km/h
Temperature: 55°F , 13°C
Dew Point: 37°F , 3°C
Humidity: 51%
Barometer: 29.99 inHg , 1015.6 hPa
Clouds: Clear
Visibility: 10 miles , 16 km
2018/02/25 18:56 KEND 251856Z 19012KT 10SM CLR 13/03 A2999 RMK AO2A SLP162 T01280029 $
KSWO - Stillwater, Oklahoma
Updated: Sun, Feb-Sun-2018 12:53pm
Clear
Clear
 Wind from SSE
Wind: SSE 12 mph , 19 km/h
Temperature: 55°F , 13°C
Dew Point: 30°F , -1°C
Humidity: 38%
Barometer: 30.02 inHg , 1016.6 hPa
Clouds: Clear
Visibility: 10 miles , 16 km
2018/02/25 18:53 KSWO 251853Z 15010KT 10SM CLR 13/M01 A3002 RMK AO2 SLP168 T01331006
KFSI - Fort Sill, Oklahoma
Updated: Sun, Feb-Sun-2018 12:56pm
Clear
Clear
 Wind from S
Wind: S 9 mph , 15 km/h
Temperature: 59°F , 15°C
Dew Point: 45°F , 7°C
Humidity: 59%
Barometer: 29.99 inHg , 1015.6 hPa
Clouds: Clear
Visibility: 10 miles , 16 km
2018/02/25 18:56 KFSI 251856Z AUTO 18008KT 10SM CLR 15/07 A2999 RMK AO2 SLP156 T01510069 $
 
KDUC - Duncan, Oklahoma
Updated: Sun, Feb-Sun-2018 1:15pm

 Wind from S
Wind: S 12 mph , 19 km/h
Temperature: 59°F , 15°C
Dew Point: 41°F , 5°C
Humidity: 51%
Barometer: 30.02 inHg , 1016.6 hPa
Visibility: 10 miles , 16 km
2018/02/25 19:15 KDUC 251915Z AUTO 19010KT 10SM 15/05 A3002 RMK AO2 T01520050
KOKM - Okmulgee, Oklahoma
Updated: Sun, Feb-Sun-2018 1:15pm
Clear
Clear
 Wind from SSE
Wind: SSE 10 mph , 17 km/h, Gust: 16 mph , 26 km/h
Temperature: 55°F , 13°C
Dew Point: 37°F , 3°C
Humidity: 51%
Barometer: 30.04 inHg , 1017.3 hPa
Clouds: Clear
Visibility: 10 miles , 16 km
2018/02/25 19:15 KOKM 251915Z AUTO 16009G14KT 10SM CLR 13/03 A3004 RMK AO2 T01300029
KMLC - Mcalester, Oklahoma
Updated: Sun, Feb-Sun-2018 12:53pm
Clear
Clear
 Wind from S
Wind: S 9 mph , 15 km/h, Gust: 20 mph , 31 km/h
Temperature: 61°F , 16°C
Dew Point: 34°F , 1°C
Humidity: 36%
Barometer: 30.06 inHg , 1017.9 hPa
Clouds: Clear
Visibility: 10 miles , 16 km
2018/02/25 18:53 KMLC 251853Z AUTO 19008G17KT 140V220 10SM CLR 16/01 A3006 RMK AO2 SLP178 T01560006
 
KMKO - Muskogee, Oklahoma
Updated: Sun, Feb-Sun-2018 12:53pm
Clear
Clear
 Wind from S
Wind: S 12 mph , 19 km/h
Temperature: 54°F , 12°C
Dew Point: 34°F , 1°C
Humidity: 47%
Barometer: 30.08 inHg , 1018.6 hPa
Clouds: Clear
Visibility: 10 miles , 16 km
2018/02/25 18:53 KMKO 251853Z AUTO 17010KT 10SM CLR 12/01 A3008 RMK AO2 SLP187 T01220011
KRVS - Tulsa, Oklahoma
Updated: Sun, Feb-Sun-2018 12:53pm
Clear
Clear
 Wind from SSE
Wind: SSE 9 mph , 15 km/h, Gust: 20 mph , 31 km/h
Temperature: 55°F , 13°C
Dew Point: 32°F , 0°C
Humidity: 41%
Barometer: 30.05 inHg , 1017.6 hPa
Clouds: Clear
Visibility: 10 miles , 16 km
2018/02/25 18:53 KRVS 251853Z 15008G17KT 10SM CLR 13/00 A3005 RMK AO2 SLP183 T01280000
KGZL - Stigler, Oklahoma
Updated: Sun, Feb-Sun-2018 1:15pm
Clear
Clear
 Wind from S
Wind: S 13 mph , 20 km/h, Gust: 16 mph , 26 km/h
Temperature: 59°F , 15°C
Dew Point: 18°F , -8°C
Humidity: 20%
Barometer: 30.06 inHg , 1017.9 hPa
Clouds: Clear
Visibility: 10 miles , 16 km
2018/02/25 19:15 KGZL 251915Z AUTO 17011G14KT 10SM CLR 15/M08 A3006 RMK AO2
 
KADH - Ada, Oklahoma
Updated: Sun, Feb-Sun-2018 1:15pm
Clear
Clear
 Wind from SE
Wind: SE 9 mph , 15 km/h
Temperature: 59°F , 15°C
Dew Point: 41°F , 5°C
Humidity: 51%
Barometer: 30.03 inHg , 1016.9 hPa
Clouds: Clear
Visibility: 10 miles , 16 km
2018/02/25 19:15 KADH 251915Z AUTO 14008KT 10SM CLR 15/05 A3003 RMK AO2
KAQR - Atoka, Oklahoma
Updated: Sun, Feb-Sun-2018 1:15pm
Clear
Clear
 Wind from SE
Wind: SE 10 mph , 17 km/h
Temperature: 61°F , 16°C
Dew Point: 32°F , 0°C
Humidity: 34%
Barometer: 30.05 inHg , 1017.6 hPa
Clouds: Clear
Visibility: 10 miles , 16 km
2018/02/25 19:15 KAQR 251915Z AUTO 14009KT 010V170 10SM CLR 16/00 A3005 RMK AO2
KJSV - Sallisaw, Oklahoma
Updated: Sun, Feb-Sun-2018 1:15pm
Clear
Clear
 Wind from SE
Wind: SE 9 mph , 15 km/h
Temperature: 59°F , 15°C
Dew Point: 43°F , 6°C
Humidity: 55%
Barometer: 30.08 inHg , 1018.6 hPa
Clouds: Clear
Visibility: 10 miles , 16 km
2018/02/25 19:15 KJSV 251915Z AUTO 14008KT 095V155 10SM CLR 15/06 A3008 RMK AO2
 
KTQH - Tahlequah, Oklahoma
Updated: Sun, Feb-Sun-2018 1:15pm
Clear
Clear
 Wind from S
Wind: S 8 mph , 13 km/h
Temperature: 57°F , 14°C
Dew Point: 34°F , 1°C
Humidity: 41%
Barometer: 30.06 inHg , 1017.9 hPa
Clouds: Clear
Visibility: 10 miles , 16 km
2018/02/25 19:15 KTQH 251915Z AUTO 17007KT 140V200 10SM CLR 14/01 A3006 RMK AO2
KGCM - Claremore, Oklahoma
Updated: Sun, Feb-Sun-2018 1:15pm
Clear
Clear
 Wind from S
Wind: S 9 mph , 15 km/h
Temperature: 54°F , 12°C
Dew Point: 32°F , 0°C
Humidity: 44%
Barometer: 30.08 inHg , 1018.6 hPa
Clouds: Clear
Visibility: 10 miles , 16 km
2018/02/25 19:15 KGCM 251915Z AUTO 17008KT 10SM CLR 12/00 A3008 RMK AO2
KRKR - Poteau, Oklahoma
Updated: Sun, Feb-Sun-2018 1:35pm
Clear
Clear
 Wind from S
Wind: S 9 mph , 15 km/h
Temperature: 59°F , 15°C
Dew Point: 30°F , -1°C
Humidity: 34%
Barometer: 30.07 inHg , 1018.3 hPa
Clouds: Clear
Visibility: 10 miles , 16 km
2018/02/25 19:35 KRKR 251935Z AUTO 17008KT 10SM CLR 15/M01 A3007 RMK AO2
 
KGMJ - Grove, Oklahoma
Updated: Sun, Feb-Sun-2018 1:15pm
Clear
Clear
 Wind from ESE
Wind: ESE 8 mph , 13 km/h
Temperature: 55°F , 13°C
Dew Point: 36°F , 2°C
Humidity: 47%
Barometer: 30.07 inHg , 1018.3 hPa
Clouds: Clear
Visibility: 10 miles , 16 km
2018/02/25 19:15 KGMJ 251915Z AUTO 12007KT 10SM CLR 13/02 A3007 RMK AO2
K4O4 - Idabel, Oklahoma
Updated: Sun, Feb-Sun-2018 1:15pm
Clear
Clear
 Wind from E
Wind: E 8 mph , 13 km/h
Temperature: 54°F , 12°C
Dew Point: 43°F , 6°C
Humidity: 67%
Barometer: 30.05 inHg , 1017.6 hPa
Clouds: Clear
Visibility: 10 miles , 16 km
2018/02/25 19:15 K4O4 251915Z AUTO 08007KT 10SM CLR 12/06 A3005 RMK AO2
KHHW - Hugo, Oklahoma
Updated: Sun, Feb-Sun-2018 1:15pm
Clear
Clear
 Wind from SSE
Wind: SSE 8 mph , 13 km/h
Temperature: 61°F , 16°C
Dew Point: 41°F , 5°C
Humidity: 48%
Barometer: 30.04 inHg , 1017.3 hPa
Clouds: Clear
Visibility: 10 miles , 16 km
2018/02/25 19:15 KHHW 251915Z AUTO 16007KT 10SM CLR 16/05 A3004 RMK AO2 T01640050
 
KDUA - Durant, Oklahoma
Updated: Sun, Feb-Sun-2018 1:15pm
Clear
Clear
 Wind from SSE
Wind: SSE 12 mph , 19 km/h
Temperature: 63°F , 17°C
Dew Point: 37°F , 3°C
Humidity: 39%
Barometer: 30.04 inHg , 1017.3 hPa
Clouds: Clear
Visibility: 10 miles , 16 km
2018/02/25 19:15 KDUA 251915Z AUTO 15010KT 10SM CLR 17/03 A3004 RMK AO2
KSTJ - St. Joseph, Missouri
Updated: Sun, Feb-Sun-2018 12:53pm
Overcast
Overcast
 Wind from SW
Wind: SW 13 mph , 20 km/h
Temperature: 45°F , 7°C
Wind Chill: 39°F , 4°C
Dew Point: 27°F , -3°C
Humidity: 49%
Barometer: 30.06 inHg , 1017.9 hPa
Clouds: Overcast
Visibility: 10 miles , 16 km
Cloud details: Overcast 11000 ft
2018/02/25 18:53 KSTJ 251853Z 23011KT 10SM OVC110 07/M03 A3006 RMK AO2 SLP183 T00721033 $
KMCI - Kansas City/Intl, Missouri
Updated: Sun, Feb-Sun-2018 12:53pm
Partly cloudy
Partly cloudy
 Wind from WSW
Wind: WSW 9 mph , 15 km/h
Temperature: 46°F , 8°C
Wind Chill: 41°F , 5°C
Dew Point: 25°F , -4°C
Humidity: 43%
Barometer: 30.05 inHg , 1017.6 hPa
Clouds: Partly cloudy
Visibility: 10 miles , 16 km
Cloud details: Partly cloudy 12000 ft
Partly cloudy 20000 ft
2018/02/25 18:53 KMCI 251853Z 24008KT 10SM SCT120 SCT200 08/M04 A3005 RMK AO2 SLP181 T00831039
 
KMKC - Kansas City/Dntn, Missouri
Updated: Sun, Feb-Sun-2018 12:54pm
Clear
Clear
 Wind from SW
Wind: SW 10 mph , 17 km/h
Temperature: 50°F , 10°C
Wind Chill: 46°F , 8°C
Dew Point: 23°F , -5°C
Humidity: 35%
Barometer: 30.06 inHg , 1017.9 hPa
Clouds: Clear
Visibility: 10 miles , 16 km
2018/02/25 18:54 KMKC 251854Z 23009KT 10SM CLR 10/M05 A3006 RMK AO2 SLP182 T01001050
KCDJ - Chillicothe, Missouri
Updated: Sun, Feb-Sun-2018 12:52pm

 Wind from varies
Wind: varies 7 mph , 11 km/h, Gust: 17 mph , 28 km/h
Temperature: 46°F , 8°C
Wind Chill: 42°F , 6°C
Dew Point: 25°F , -4°C
Humidity: 43%
Barometer: 30.06 inHg , 1017.9 hPa
2018/02/25 18:52 KCDJ 251852Z AUTO VRB06G15KT 08/M04 A3006 RMK AO1 SLP189 T00831039
KIRK - Kirksville, Missouri
Updated: Sun, Feb-Sun-2018 12:55pm
Clear
Clear
 Wind from WSW
Wind: WSW 15 mph , 24 km/h, Gust: 18 mph , 30 km/h
Temperature: 46°F , 8°C
Wind Chill: 40°F , 4°C
Dew Point: 27°F , -3°C
Humidity: 46%
Barometer: 30.04 inHg , 1017.3 hPa
Clouds: Clear
Visibility: 10 miles , 16 km
2018/02/25 18:55 KIRK 251855Z AUTO 24013G16KT 10SM CLR 08/M03 A3004 RMK AO2 SLP182 T00781028
 
KSZL - Whiteman Afb, Missouri
Updated: Sun, Feb-Sun-2018 12:55pm
Clear
Clear
 Wind from WNW
Wind: WNW 8 mph , 13 km/h
Temperature: 48°F , 9°C
Wind Chill: 44°F , 7°C
Dew Point: 21°F , -6°C
Humidity: 34%
Barometer: 30.05 inHg , 1017.6 hPa
Clouds: Clear
Visibility: 10 miles , 16 km
2018/02/25 18:55 KSZL 251855Z 30007KT 10SM CLR 09/M06 A3005 RMK AO2A SLPNO ALSTG ESTMD $
KDMO - Sedalia, Missouri
Updated: Sun, Feb-Sun-2018 12:53pm
Clear
Clear
 Wind from W
Wind: W 9 mph , 15 km/h
Temperature: 46°F , 8°C
Wind Chill: 41°F , 5°C
Dew Point: 27°F , -3°C
Humidity: 46%
Barometer: 30.09 inHg , 1019 hPa
Clouds: Clear
Visibility: 10 miles , 16 km
2018/02/25 18:53 KDMO 251853Z AUTO 26008KT 10SM CLR 08/M03 A3009 RMK AO2 SLP195 T00831033
KGLY - Clinton, Missouri
Updated: Sun, Feb-Sun-2018 1:15pm
Clear
Clear
 Wind from SSW
Wind: SSW 7 mph , 11 km/h
Temperature: 48°F , 9°C
Wind Chill: 45°F , 7°C
Dew Point: 27°F , -3°C
Humidity: 43%
Barometer: 30.10 inHg , 1019.3 hPa
Clouds: Clear
Visibility: 10 miles , 16 km
2018/02/25 19:15 KGLY 251915Z AUTO 21006KT 10SM CLR 09/M03 A3010 RMK AO2
 
KCOU - Columbia, Missouri
Updated: Sun, Feb-Sun-2018 12:54pm
Clear
Clear
 Wind from WSW
Wind: WSW 7 mph , 11 km/h
Temperature: 46°F , 8°C
Wind Chill: 42°F , 6°C
Dew Point: 23°F , -5°C
Humidity: 40%
Barometer: 30.08 inHg , 1018.6 hPa
Clouds: Clear
Visibility: 10 miles , 16 km
2018/02/25 18:54 KCOU 251854Z 24006KT 10SM CLR 08/M05 A3008 RMK AO2 SLP189 T00831050
KJEF - Jefferson City, Missouri
Updated: Sun, Feb-Sun-2018 12:53pm
Clear
Clear
 Wind from SW
Wind: SW 6 mph , 9 km/h
Temperature: 46°F , 8°C
Wind Chill: 43°F , 6°C
Dew Point: 23°F , -5°C
Humidity: 40%
Barometer: 30.10 inHg , 1019.3 hPa
Clouds: Clear
Visibility: 10 miles , 16 km
2018/02/25 18:53 KJEF 251853Z 22005KT 10SM CLR 08/M05 A3010 RMK AO2 SLP184 T00831050 $
KVIH - Vichy/Rolla, Missouri
Updated: Sun, Feb-Sun-2018 12:53pm
Clear
Clear
 Wind from SSW
Wind: SSW 6 mph , 9 km/h
Temperature: 46°F , 8°C
Wind Chill: 43°F , 6°C
Dew Point: 25°F , -4°C
Humidity: 43%
Barometer: 30.09 inHg , 1019 hPa
Clouds: Clear
Visibility: 10 miles , 16 km
2018/02/25 18:53 KVIH 251853Z AUTO 20005KT 10SM CLR 08/M04 A3009 RMK AO2 SLP195 T00781039 $
 
KTBN - Fort Leonard Wood, Missouri
Updated: Sun, Feb-Sun-2018 12:56pm
Clear
Clear
 Wind from S
Wind: S 8 mph , 13 km/h
Temperature: 50°F , 10°C
Wind Chill: 47°F , 8°C
Dew Point: 25°F , -4°C
Humidity: 37%
Barometer: 30.09 inHg , 1019 hPa
Clouds: Clear
Visibility: 10 miles , 16 km
2018/02/25 18:56 KTBN 251856Z AUTO 19007KT 10SM CLR 10/M04 A3009 RMK AO2 SLP197 T00961044
KJLN - Joplin, Missouri
Updated: Sun, Feb-Sun-2018 12:53pm
Clear
Clear
 Wind from varies
Wind: varies 5 mph , 7 km/h
Temperature: 50°F , 10°C
Wind Chill: 48°F , 9°C
Dew Point: 30°F , -1°C
Humidity: 47%
Barometer: 30.08 inHg , 1018.6 hPa
Clouds: Clear
Visibility: 10 miles , 16 km
2018/02/25 18:53 KJLN 251853Z VRB04KT 10SM CLR 10/M01 A3008 RMK AO2 SLP189 T01001006
KHFJ - Monett, Missouri
Updated: Sun, Feb-Sun-2018 1:15pm
Clear
Clear
 Wind from ESE
Wind: ESE 5 mph , 7 km/h
Temperature: 50°F , 10°C
Wind Chill: 48°F , 9°C
Dew Point: 32°F , 0°C
Humidity: 50%
Barometer: 30.06 inHg , 1017.9 hPa
Clouds: Clear
Visibility: 10 miles , 16 km
2018/02/25 19:15 KHFJ 251915Z AUTO 12004KT 10SM CLR 10/00 A3006 RMK AO2
 
KSGF - Springfield, Missouri
Updated: Sun, Feb-Sun-2018 12:52pm
Clear
Clear
 Wind from varies
Wind: varies 3 mph , 6 km/h
Temperature: 50°F , 10°C
Dew Point: 28°F , -2°C
Humidity: 43%
Barometer: 30.09 inHg , 1019 hPa
Clouds: Clear
Visibility: 10 miles , 16 km
2018/02/25 18:52 KSGF 251852Z VRB03KT 10SM CLR 10/M02 A3009 RMK AO2 SLP192 T01001017
KBBG - Branson, Missouri
Updated: Sun, Feb-Sun-2018 12:50pm
Few Clouds
Few Clouds
 Wind from SSE
Wind: SSE 6 mph , 9 km/h
Temperature: 50°F , 10°C
Wind Chill: 48°F , 9°C
Dew Point: 28°F , -2°C
Humidity: 43%
Barometer: 30.10 inHg , 1019.3 hPa
Clouds: Few Clouds
Visibility: 10 miles , 16 km
Cloud details: Few Clouds 25000 ft
2018/02/25 18:50 KBBG 251850Z 15005KT 10SM FEW250 10/M02 A3010
KUNO - West Plains, Missouri
Updated: Sun, Feb-Sun-2018 12:53pm
Clear
Clear
 Wind from SE
Wind: SE 5 mph , 7 km/h
Temperature: 48°F , 9°C
Wind Chill: 46°F , 8°C
Dew Point: 30°F , -1°C
Humidity: 50%
Barometer: 30.10 inHg , 1019.3 hPa
Clouds: Clear
Visibility: 10 miles , 16 km
2018/02/25 18:53 KUNO 251853Z AUTO 14004KT 10SM CLR 09/M01 A3010 RMK AO2 SLP196 T00941011
 
KFAM - Farmington, Missouri
Updated: Sun, Feb-Sun-2018 12:56pm
Clear
Clear
 Wind from varies
Wind: varies 3 mph , 6 km/h
Temperature: 48°F , 9°C
Dew Point: 25°F , -4°C
Humidity: 40%
Barometer: 30.09 inHg , 1019 hPa
Clouds: Clear
Visibility: 10 miles , 16 km
2018/02/25 18:56 KFAM 251856Z AUTO VRB03KT 10SM CLR 09/M04 A3009 RMK AO2 SLP191 T00941039
KCGI - Cape Girardeau, Missouri
Updated: Sun, Feb-Sun-2018 12:53pm
Clear
Clear
 Wind from calm
Wind: Calm
Temperature: 48°F , 9°C
Dew Point: 34°F , 1°C
Humidity: 58%
Barometer: 30.12 inHg , 1020 hPa
Clouds: Clear
Visibility: 10 miles , 16 km
2018/02/25 18:53 KCGI 251853Z 00000KT 10SM CLR 09/01 A3012 RMK AO2 SLP201 T00890006
KSTL - St. Louis, Missouri
Updated: Sun, Feb-Sun-2018 12:51pm
Few Clouds
Few Clouds
 Wind from W
Wind: W 8 mph , 13 km/h
Temperature: 48°F , 9°C
Wind Chill: 44°F , 7°C
Dew Point: 23°F , -5°C
Humidity: 37%
Barometer: 30.09 inHg , 1019 hPa
Clouds: Few Clouds
Visibility: 10 miles , 16 km
Cloud details: Few Clouds 20000 ft
2018/02/25 18:51 KSTL 251851Z 28007KT 10SM FEW200 09/M05 A3009 RMK AO2 SLP194 T00941050
 
KPOF - Popular Bluff, Missouri
Updated: Sun, Feb-Sun-2018 12:53pm
Clear
Clear
 Wind from calm
Wind: Calm
Temperature: 50°F , 10°C
Dew Point: 30°F , -1°C
Humidity: 47%
Barometer: 30.12 inHg , 1020 hPa
Clouds: Clear
Visibility: 10 miles , 16 km
2018/02/25 18:53 KPOF 251853Z AUTO 00000KT 10SM CLR 10/M01 A3012 RMK AO2 SLP201 T01001006
KSET - St. Charles, Missouri
Updated: Sun, Feb-Sun-2018 12:54pm

 Wind from SW
Wind: SW 10 mph , 17 km/h
Temperature: 48°F , 9°C
Wind Chill: 44°F , 7°C
Dew Point: 27°F , -3°C
Humidity: 43%
Barometer: 30.09 inHg , 1019 hPa
Visibility: 10 miles , 16 km
2018/02/25 18:54 KSET 251854Z AUTO 23009KT 10SM 09/M03 A3009 RMK AO2 SLP190 T00891033 $
KGLD - Goodland, Kansas
Updated: Sun, Feb-Sun-2018 12:53pm
Clear
Clear
 Wind from W
Wind: W 14 mph , 22 km/h, Gust: 25 mph , 41 km/h
Temperature: 45°F , 7°C
Wind Chill: 39°F , 4°C
Dew Point: 9°F , -13°C
Humidity: 23%
Barometer: 29.94 inHg , 1013.9 hPa
Clouds: Clear
Visibility: 10 miles , 16 km
2018/02/25 18:53 KGLD 251853Z AUTO 26012G22KT 10SM CLR 07/M13 A2994 RMK AO2 SLP156 T00671133
 
KHLC - Hill City, Kansas
Updated: Sun, Feb-Sun-2018 12:53pm
Clear
Clear
 Wind from SSW
Wind: SSW 7 mph , 11 km/h
Temperature: 46°F , 8°C
Wind Chill: 42°F , 6°C
Dew Point: 9°F , -13°C
Humidity: 21%
Barometer: 30.00 inHg , 1015.9 hPa
Clouds: Clear
Visibility: 10 miles , 16 km
2018/02/25 18:53 KHLC 251853Z AUTO 20006KT 10SM CLR 08/M13 A3000 RMK AO2 SLP173 T00831128
KHYS - Hays Muni, Kansas
Updated: Sun, Feb-Sun-2018 12:56pm
Clear
Clear
 Wind from W
Wind: W 5 mph , 7 km/h
Temperature: 46°F , 8°C
Wind Chill: 44°F , 7°C
Dew Point: 10°F , -12°C
Humidity: 23%
Barometer: 30.01 inHg , 1016.3 hPa
Clouds: Clear
Visibility: 10 miles , 16 km
2018/02/25 18:56 KHYS 251856Z AUTO 26004KT 10SM CLR 08/M12 A3001 RMK AO2 SLP179 T00781122
KRSL - Russell, Kansas
Updated: Sun, Feb-Sun-2018 12:53pm
Clear
Clear
 Wind from SSW
Wind: SSW 5 mph , 7 km/h
Temperature: 48°F , 9°C
Wind Chill: 46°F , 8°C
Dew Point: 14°F , -10°C
Humidity: 25%
Barometer: 30.00 inHg , 1015.9 hPa
Clouds: Clear
Visibility: 10 miles , 16 km
2018/02/25 18:53 KRSL 251853Z AUTO 21004KT 10SM CLR 09/M10 A3000 RMK AO2 SLP175 T00891100
 
KGBD - Great Bend, Kansas
Updated: Sun, Feb-Sun-2018 12:56pm
Clear
Clear
 Wind from S
Wind: S 6 mph , 9 km/h
Temperature: 48°F , 9°C
Wind Chill: 45°F , 7°C
Dew Point: 18°F , -8°C
Humidity: 29%
Barometer: 30.01 inHg , 1016.3 hPa
Clouds: Clear
Visibility: 10 miles , 16 km
2018/02/25 18:56 KGBD 251856Z AUTO 19005KT 10SM CLR 09/M08 A3001 RMK AO2 SLP173 T00941083
KDDC - Dodge City, Kansas
Updated: Sun, Feb-Sun-2018 12:52pm
Clear
Clear
 Wind from varies
Wind: varies 7 mph , 11 km/h
Temperature: 48°F , 9°C
Wind Chill: 45°F , 7°C
Dew Point: 16°F , -9°C
Humidity: 27%
Barometer: 29.98 inHg , 1015.2 hPa
Clouds: Clear
Visibility: 10 miles , 16 km
2018/02/25 18:52 KDDC 251852Z AUTO VRB06KT 10SM CLR 09/M09 A2998 RMK AO2 SLP163 T00891089
KPTT - Pratt Indust, Kansas
Updated: Sun, Feb-Sun-2018 1:15pm
Partly cloudy
Partly cloudy
 Wind from SSE
Wind: SSE 9 mph , 15 km/h
Temperature: 50°F , 10°C
Wind Chill: 46°F , 8°C
Dew Point: 25°F , -4°C
Humidity: 37%
Barometer: 29.98 inHg , 1015.2 hPa
Clouds: Partly cloudy
Visibility: 10 miles , 16 km
Cloud details: Partly cloudy 4900 ft
2018/02/25 19:15 KPTT 251915Z AUTO 15008KT 120V180 10SM SCT049 10/M04 A2998 RMK AO2 T00961042
 
KSLN - Salina, Kansas
Updated: Sun, Feb-Sun-2018 12:53pm
Clear
Clear
 Wind from S
Wind: S 7 mph , 11 km/h
Temperature: 46°F , 8°C
Wind Chill: 42°F , 6°C
Dew Point: 21°F , -6°C
Humidity: 37%
Barometer: 30.03 inHg , 1016.9 hPa
Clouds: Clear
Visibility: 10 miles , 16 km
2018/02/25 18:53 KSLN 251853Z 19006KT 10SM CLR 08/M06 A3003 RMK AO2 SLP179 T00781056
KHUT - Hutchinson, Kansas
Updated: Sun, Feb-Sun-2018 12:52pm
Clear
Clear
 Wind from SSE
Wind: SSE 14 mph , 22 km/h, Gust: 18 mph , 30 km/h
Temperature: 50°F , 10°C
Wind Chill: 45°F , 7°C
Dew Point: 27°F , -3°C
Humidity: 40%
Barometer: 30.01 inHg , 1016.3 hPa
Clouds: Clear
Visibility: 10 miles , 16 km
2018/02/25 18:52 KHUT 251852Z 15012G16KT 10SM CLR 10/M03 A3001 RMK AO2 SLP165 T01001033 $
KGCK - Garden City, Kansas
Updated: Sun, Feb-Sun-2018 12:54pm
Clear
Clear
 Wind from N
Wind: N 7 mph , 11 km/h
Temperature: 45°F , 7°C
Wind Chill: 41°F , 5°C
Dew Point: 9°F , -13°C
Humidity: 23%
Barometer: 29.99 inHg , 1015.6 hPa
Clouds: Clear
Visibility: 10 miles , 16 km
2018/02/25 18:54 KGCK 251854Z 01006KT 10SM CLR 07/M13 A2999 RMK AO2 SLP172 T00671133
 
KP28 - Medicine Lodge, Kansas
Updated: Sun, Feb-Sun-2018 12:56pm

 Wind from S
Wind: S 12 mph , 19 km/h, Gust: 21 mph , 33 km/h
Temperature: 50°F , 10°C
Wind Chill: 45°F , 7°C
Dew Point: 32°F , 0°C
Humidity: 50%
Barometer: 29.97 inHg , 1014.9 hPa
2018/02/25 18:56 KP28 251856Z AUTO 19010G18KT 10/00 A2997 RMK AO1 SLP155 T01000000
KICT - Wichita, Kansas
Updated: Sun, Feb-Sun-2018 12:53pm
Few Clouds
Few Clouds
 Wind from SSE
Wind: SSE 8 mph , 13 km/h
Temperature: 48°F , 9°C
Wind Chill: 44°F , 7°C
Dew Point: 30°F , -1°C
Humidity: 50%
Barometer: 30.02 inHg , 1016.6 hPa
Clouds: Few Clouds
Visibility: 10 miles , 16 km
Cloud details: Few Clouds 4500 ft
Few Clouds 7000 ft
Few Clouds 22000 ft
2018/02/25 18:53 KICT 251853Z 15007KT 10SM FEW045 FEW070 FEW220 09/M01 A3002 RMK AO2 SLP173 T00941006 $
KRSL - Russell, Kansas
Updated: Sun, Feb-Sun-2018 12:53pm
Clear
Clear
 Wind from SSW
Wind: SSW 5 mph , 7 km/h
Temperature: 48°F , 9°C
Wind Chill: 46°F , 8°C
Dew Point: 14°F , -10°C
Humidity: 25%
Barometer: 30.00 inHg , 1015.9 hPa
Clouds: Clear
Visibility: 10 miles , 16 km
2018/02/25 18:53 KRSL 251853Z AUTO 21004KT 10SM CLR 09/M10 A3000 RMK AO2 SLP175 T00891100
 
KMHK - Manhattan, Kansas
Updated: Sun, Feb-Sun-2018 12:52pm
Partly cloudy
Partly cloudy
 Wind from SSW
Wind: SSW 8 mph , 13 km/h
Temperature: 50°F , 10°C
Wind Chill: 47°F , 8°C
Dew Point: 21°F , -6°C
Humidity: 32%
Barometer: 30.04 inHg , 1017.3 hPa
Clouds: Partly cloudy
Visibility: 10 miles , 16 km
Cloud details: Partly cloudy 11000 ft
2018/02/25 18:52 KMHK 251852Z 21007KT 10SM SCT110 10/M06 A3004 RMK AO2 SLP181 T01001056
KEMP - Emporia, Kansas
Updated: Sun, Feb-Sun-2018 12:53pm
Overcast
Overcast
 Wind from SSW
Wind: SSW 8 mph , 13 km/h
Temperature: 48°F , 9°C
Wind Chill: 44°F , 7°C
Dew Point: 21°F , -6°C
Humidity: 34%
Barometer: 30.04 inHg , 1017.3 hPa
Clouds: Overcast
Visibility: 10 miles , 16 km
Cloud details: Overcast 8500 ft
2018/02/25 18:53 KEMP 251853Z AUTO 21007KT 10SM OVC085 09/M06 A3004 RMK AO2 SLP182 T00891056
KTOP - Topeka, Kansas
Updated: Sun, Feb-Sun-2018 12:53pm
Clear
Clear
 Wind from SSW
Wind: SSW 10 mph , 17 km/h
Temperature: 50°F , 10°C
Wind Chill: 46°F , 8°C
Dew Point: 19°F , -7°C
Humidity: 30%
Barometer: 30.05 inHg , 1017.6 hPa
Clouds: Clear
Visibility: 10 miles , 16 km
2018/02/25 18:53 KTOP 251853Z 20009KT 170V230 10SM CLR 10/M07 A3005 RMK AO2 SLP181 T01001072
 
KCNU - Chanute, Kansas
Updated: Sun, Feb-Sun-2018 12:52pm
Clear
Clear
 Wind from SSE
Wind: SSE 10 mph , 17 km/h
Temperature: 48°F , 9°C
Wind Chill: 44°F , 7°C
Dew Point: 32°F , 0°C
Humidity: 54%
Barometer: 30.07 inHg , 1018.3 hPa
Clouds: Clear
Visibility: 10 miles , 16 km
2018/02/25 18:52 KCNU 251852Z AUTO 16009KT 10SM CLR 09/00 A3007 RMK AO2 SLP186 T00940000
KLWC - Lawrence, Kansas
Updated: Sun, Feb-Sun-2018 12:52pm
Few Clouds
Few Clouds
 Wind from SW
Wind: SW 7 mph , 11 km/h
Temperature: 50°F , 10°C
Wind Chill: 47°F , 8°C
Dew Point: 25°F , -4°C
Humidity: 37%
Barometer: 30.06 inHg , 1017.9 hPa
Clouds: Few Clouds
Visibility: 10 miles , 16 km
Cloud details: Few Clouds 10000 ft
2018/02/25 18:52 KLWC 251852Z AUTO 22006KT 10SM FEW100 10/M04 A3006 RMK AO2 SLP183 T01001044 $
KPPF - Parsons, Kansas
Updated: Sun, Feb-Sun-2018 12:52pm
Clear
Clear
 Wind from ESE
Wind: ESE 7 mph , 11 km/h
Temperature: 50°F , 10°C
Wind Chill: 47°F , 8°C
Dew Point: 32°F , 0°C
Humidity: 50%
Barometer: 30.08 inHg , 1018.6 hPa
Clouds: Clear
Visibility: 10 miles , 16 km
2018/02/25 18:52 KPPF 251852Z AUTO 12006KT 10SM CLR 10/00 A3008 RMK AO2 SLP189 T01000000
 
KIDP - Independence, Kansas
Updated: Sun, Feb-Sun-2018 1:15pm
Clear
Clear
 Wind from SSE
Wind: SSE 8 mph , 13 km/h
Temperature: 50°F , 10°C
Wind Chill: 47°F , 8°C
Dew Point: 34°F , 1°C
Humidity: 54%
Barometer: 30.06 inHg , 1017.9 hPa
Clouds: Clear
Visibility: 10 miles , 16 km
2018/02/25 19:15 KIDP 251915Z AUTO 16007KT 10SM CLR 10/01 A3006 RMK AO2 T01040014
KOJC - Olathe, Kansas
Updated: Sun, Feb-Sun-2018 12:53pm
Mostly cloudy
Mostly cloudy
 Wind from SW
Wind: SW 7 mph , 11 km/h
Temperature: 46°F , 8°C
Wind Chill: 42°F , 6°C
Dew Point: 21°F , -6°C
Humidity: 37%
Barometer: 30.06 inHg , 1017.9 hPa
Clouds: Mostly cloudy
Visibility: 10 miles , 16 km
Cloud details: Mostly cloudy 9500 ft
2018/02/25 18:53 KOJC 251853Z 23006KT 10SM BKN095 08/M06 A3006 RMK AO2 SLP185 T00781061
KCFV - Coffeyville, Kansas
Updated: Sun, Feb-Sun-2018 12:52pm
Clear
Clear
 Wind from SSW
Wind: SSW 7 mph , 11 km/h
Temperature: 52°F , 11°C
Dew Point: 34°F , 1°C
Humidity: 50%
Barometer: 30.07 inHg , 1018.3 hPa
Clouds: Clear
Visibility: 10 miles , 16 km
2018/02/25 18:52 KCFV 251852Z AUTO 20006KT 10SM CLR 11/01 A3007 RMK AO2 SLP186 T01060011
 
KPTS - Pittsburg, Kansas
Updated: Sun, Feb-Sun-2018 1:35pm
Clear
Clear
 Wind from SW
Wind: SW 5 mph , 7 km/h
Temperature: 46°F , 8°C
Wind Chill: 44°F , 7°C
Dew Point: 28°F , -2°C
Humidity: 50%
Barometer: 30.06 inHg , 1017.9 hPa
Clouds: Clear
Visibility: 10 miles , 16 km
2018/02/25 19:35 KPTS 251935Z AUTO 22004KT 10SM CLR 08/M02 A3006 RMK AO2 T00831018
KLGA - New York City, New York
Updated: Sun, Feb-Sun-2018 12:51pm
Light rain, Mist, Overcast
Light rain, Mist, Overcast
 Wind from NNE
Wind: NNE 13 mph , 20 km/h, Gust: 25 mph , 41 km/h
Temperature: 39°F , 4°C
Wind Chill: 31°F , -1°C
Dew Point: 37°F , 3°C
Humidity: 93%
Barometer: 29.97 inHg , 1014.9 hPa
Summary: Light rain, Mist
Clouds: Overcast
Visibility: 2 miles , 3 km
Cloud details: Few Clouds 200 ft
Overcast 400 ft
2018/02/25 18:51 KLGA 251851Z 03011G22KT 2SM -RA BR FEW002 OVC004 04/03 A2997 RMK AO2 SFC VIS 3 RAE34B45 SLP148 P0000 T00440033
KCLT - Charlotte, North Carolina
Updated: Sun, Feb-Sun-2018 12:52pm
Light rain, Overcast
Light rain, Overcast
 Wind from S
Wind: S 5 mph , 7 km/h
Temperature: 66°F , 19°C
Dew Point: 61°F , 16°C
Humidity: 83%
Barometer: 30.08 inHg , 1018.6 hPa
Summary: Light rain
Clouds: Overcast
Visibility: 10 miles , 16 km
Cloud details: Few Clouds 1200 ft
Few Clouds 7000 ft
Overcast 8500 ft
2018/02/25 18:52 KCLT 251852Z 18004KT 10SM -RA FEW012 FEW070 OVC085 19/16 A3008 RMK AO2 RAB51 SLP180 P0000 T01890161
 
KATL - Atlanta, Georgia
Updated: Sun, Feb-Sun-2018 12:52pm
Overcast
Overcast
 Wind from W
Wind: W 5 mph , 7 km/h
Temperature: 64°F , 18°C
Dew Point: 59°F , 15°C
Humidity: 83%
Barometer: 30.15 inHg , 1021 hPa
Clouds: Overcast
Visibility: 10 miles , 16 km
Cloud details: Few Clouds 1500 ft
Partly cloudy 6500 ft
Overcast 8000 ft
2018/02/25 18:52 KATL 251852Z 28004KT 10SM FEW015 SCT065 OVC080 18/15 A3015 RMK AO2 RAE03 SLP203 P0000 T01780150
KORL - Orlando, Florida
Updated: Sun, Feb-Sun-2018 12:53pm
Clear
Clear
 Wind from SSW
Wind: SSW 8 mph , 13 km/h
Temperature: 86°F , 30°C
Heat Index: 86°F , 30°C
Dew Point: 61°F , 16°C
Humidity: 43%
Barometer: 30.13 inHg , 1020.3 hPa
Clouds: Clear
Visibility: 10 miles , 16 km
2018/02/25 18:53 KORL 251853Z 20007KT 10SM CLR 30/16 A3013 RMK AO2 SLP207 T03000161
KMSP - Minneapolis, Minnesota
Updated: Sun, Feb-Sun-2018 12:53pm
Overcast
Overcast
 Wind from W
Wind: W 14 mph , 22 km/h
Temperature: 25°F , -4°C
Wind Chill: 13°F , -11°C
Dew Point: 18°F , -8°C
Humidity: 74%
Barometer: 29.77 inHg , 1008.1 hPa
Clouds: Overcast
Visibility: 10 miles , 16 km
Cloud details: Overcast 2600 ft
2018/02/25 18:53 KMSP 251853Z 26012KT 10SM OVC026 M04/M08 A2977 RMK AO2 SLP092 T10391083
 
KORD - Chicago, Illinois
Updated: Sun, Feb-Sun-2018 12:51pm
Few Clouds
Few Clouds
 Wind from W
Wind: W 18 mph , 30 km/h, Gust: 25 mph , 41 km/h
Temperature: 41°F , 5°C
Wind Chill: 32°F , 0°C
Dew Point: 23°F , -5°C
Humidity: 49%
Barometer: 29.92 inHg , 1013.2 hPa
Clouds: Few Clouds
Visibility: 10 miles , 16 km
Cloud details: Few Clouds 3000 ft
2018/02/25 18:51 KORD 251851Z 26016G22KT 10SM FEW030 05/M05 A2992 RMK AO2 PK WND 24028/1807 SLP135 T00501050 $
KDFW - Dallas/Ft Worth, Texas
Updated: Sun, Feb-Sun-2018 12:53pm
Mostly cloudy
Mostly cloudy
 Wind from SSE
Wind: SSE 13 mph , 20 km/h
Temperature: 64°F , 18°C
Dew Point: 45°F , 7°C
Humidity: 49%
Barometer: 30.02 inHg , 1016.6 hPa
Clouds: Mostly cloudy
Visibility: 10 miles , 16 km
Cloud details: Mostly cloudy 12000 ft
Mostly cloudy 20000 ft
2018/02/25 18:53 KDFW 251853Z 16011KT 10SM BKN120 BKN200 18/07 A3002 RMK AO2 SLP162 T01780072 $
KHOU - Houston, Texas
Updated: Sun, Feb-Sun-2018 12:53pm
Overcast
Overcast
 Wind from ENE
Wind: ENE 10 mph , 17 km/h
Temperature: 61°F , 16°C
Dew Point: 61°F , 16°C
Humidity: 100%
Barometer: 29.96 inHg , 1014.6 hPa
Clouds: Overcast
Visibility: 10 miles , 16 km
Cloud details: Mostly cloudy 800 ft
Overcast 1300 ft
2018/02/25 18:53 KHOU 251853Z 06009KT 10SM BKN008 OVC013 16/16 A2996 RMK AO2 RAB05E50 SLP149 P0000 T01560156 $
 
KDEN - Denver, Colorado
Updated: Sun, Feb-Sun-2018 12:53pm
Few Clouds
Few Clouds
 Wind from W
Wind: W 21 mph , 33 km/h, Gust: 32 mph , 52 km/h
Temperature: 37°F , 3°C
Wind Chill: 26°F , -3°C
Dew Point: 1°F , -17°C
Humidity: 22%
Barometer: 29.89 inHg , 1012.2 hPa
Clouds: Few Clouds
Visibility: 10 miles , 16 km
Cloud details: Few Clouds 8000 ft
Few Clouds 15000 ft
2018/02/25 18:53 KDEN 251853Z 28018G28KT 10SM FEW080 FEW150 03/M17 A2989 RMK AO2 PK WND 26029/1810 SLP147 T00281172 $
KSFO - San Francisco, California
Updated: Sun, Feb-Sun-2018 12:56pm
Few Clouds
Few Clouds
 Wind from NE
Wind: NE 7 mph , 11 km/h
Temperature: 52°F , 11°C
Dew Point: 39°F , 4°C
Humidity: 62%
Barometer: 30.36 inHg , 1028.1 hPa
Clouds: Few Clouds
Visibility: 10 miles , 16 km
Cloud details: Few Clouds 20000 ft
2018/02/25 18:56 KSFO 251856Z 04006KT 10SM FEW200 11/04 A3036 RMK AO2 SLP280 T01110039 $
KLAX - Los Angeles, California
Updated: Sun, Feb-Sun-2018 12:53pm
Few Clouds
Few Clouds
 Wind from varies
Wind: varies 5 mph , 7 km/h
Temperature: 63°F , 17°C
Dew Point: 27°F , -3°C
Humidity: 25%
Barometer: 30.23 inHg , 1023.7 hPa
Clouds: Few Clouds
Visibility: 10 miles , 16 km
Cloud details: Few Clouds 30000 ft
2018/02/25 18:53 KLAX 251853Z VRB04KT 10SM FEW300 17/M03 A3023 RMK AO2 SLP235 T01721028